Portada
METAR-TAF:

METAR-TAF

Aeroports :

Bagdad, Iraq

latitud: 33-15-45N, longitud: 44-14-04E, altitud: 35 m

Observació

L'informe es va fer fa 35 minuts, a les 10:00 UTC
Vent 15 kt del Oest/Nord-Oest
Temperatura 44°C
Humitat 15%
Pressió 1001 hPa
Visibilitat: 9000 m

METAR: ORBI 091000Z 30015KT 9000 NSC 44/12 Q1001 NOSIG

Hora: 13:35 (10:35 UTC)

Pronòstic

L'informe es va fer fa 6 hores i 35 minuts, a les 04:00 UTC
Pronòstic vàlid del 09 a les 06 UTC al 10 a les 06 UTC
Vent 14 kt del Nord/Nord-Oest
Visibilitat 10 km o més
sense núvols per sota de 1500 mi sense presència de cumulonimbus.

TAF: ORBI 090400Z 0906/1006 33014KT CAVOK

Observacions i pronòstics meteorològics de més de 4000 aeroports (METAR i TAF).

Les estacions disponibles són els punts grocs i vermells al mapa.

Posi el ratolí al punt desitjat per veure el nom de l'estació.

Feu clic per veure les observacions i els pronòstics meteorològics.

Per canviar el mapa: feu clic els botons verds amb una creu de color negre per apropar; al botó verd amb un guió per allunyar la imatge; o en les fletxes verdes per a mapes adjacents.


METAR-TAF: